createdAt,value
2018-09-02T00:00:16.442Z,15.7
2018-09-02T00:01:15.776Z,15.7
2018-09-02T00:02:15.006Z,15.7
2018-09-02T00:03:14.331Z,15.7
2018-09-02T00:04:14.048Z,15.7
2018-09-02T00:05:12.660Z,15.7
2018-09-02T00:06:12.379Z,15.7
2018-09-02T00:06:42.910Z,15.7
2018-09-02T00:07:13.671Z,15.7
2018-09-02T00:07:44.214Z,15.7
2018-09-02T00:09:10.404Z,15.7
2018-09-02T00:09:40.940Z,15.7
2018-09-02T00:10:11.368Z,15.7
2018-09-02T00:11:08.690Z,15.7
2018-09-02T00:12:08.027Z,15.7
2018-09-02T00:13:07.460Z,15.7
2018-09-02T00:14:06.688Z,15.7
2018-09-02T00:15:06.021Z,15.7
2018-09-02T00:16:05.353Z,15.7
2018-09-02T00:17:04.794Z,15.7
2018-09-02T00:18:03.628Z,15.7
2018-09-02T00:19:02.963Z,15.7
2018-09-02T00:20:02.191Z,15.7
2018-09-02T00:21:01.919Z,15.7
2018-09-02T00:22:01.263Z,15.7
2018-09-02T00:23:00.486Z,15.7
2018-09-02T00:23:59.429Z,15.7
2018-09-02T00:24:58.884Z,15.7
2018-09-02T00:25:58.217Z,15.7
2018-09-02T00:26:57.446Z,15.7
2018-09-02T00:27:56.574Z,15.7
2018-09-02T00:28:56.010Z,15.7
2018-09-02T00:29:55.014Z,15.7
2018-09-02T00:30:54.460Z,15.7
2018-09-02T00:31:53.573Z,15.7
2018-09-02T00:32:53.110Z,15.7
2018-09-02T00:33:52.446Z,15.7
2018-09-02T00:34:51.603Z,15.7
2018-09-02T00:35:50.825Z,15.7
2018-09-02T00:36:50.552Z,15.7
2018-09-02T00:37:49.882Z,15.7
2018-09-02T00:38:48.708Z,15.7
2018-09-02T00:39:19.148Z,15.7
2018-09-02T00:39:49.898Z,15.7
2018-09-02T00:40:47.743Z,15.7
2018-09-02T00:41:46.558Z,15.7
2018-09-02T00:42:45.999Z,15.7
2018-09-02T00:43:45.330Z,15.7
2018-09-02T00:44:44.478Z,15.7
2018-09-02T00:45:43.916Z,15.7
2018-09-02T00:46:43.257Z,15.7
2018-09-02T00:47:42.495Z,15.7
2018-09-02T00:48:41.835Z,15.7
2018-09-02T00:49:40.851Z,15.7
2018-09-02T00:50:40.064Z,15.7
2018-09-02T00:51:39.793Z,15.7
2018-09-02T00:52:39.016Z,15.7
2018-09-02T00:53:38.452Z,15.7
2018-09-02T00:54:08.593Z,15.7
2018-09-02T00:54:38.806Z,15.7
2018-09-02T00:55:09.561Z,15.7
2018-09-02T00:56:36.178Z,15.7
2018-09-02T00:57:35.399Z,15.7
2018-09-02T00:58:34.741Z,15.7
2018-09-02T00:59:33.974Z,15.7
2018-09-02T01:00:33.297Z,15.7
2018-09-02T01:01:32.745Z,15.7
2018-09-02T01:02:31.673Z,15.7
2018-09-02T01:03:31.002Z,15.7
2018-09-02T01:04:30.325Z,15.7
2018-09-02T01:05:29.754Z,15.7
2018-09-02T01:06:29.091Z,15.7
2018-09-02T01:07:28.315Z,15.7
2018-09-02T01:08:27.750Z,15.7
2018-09-02T01:09:26.678Z,15.6
2018-09-02T01:10:26.008Z,15.6
2018-09-02T01:11:25.329Z,15.6
2018-09-02T01:12:24.552Z,15.6
2018-09-02T01:13:24.185Z,15.6
2018-09-02T01:14:23.044Z,15.6
2018-09-02T01:15:22.376Z,15.6
2018-09-02T01:17:21.094Z,15.6
2018-09-02T01:18:20.552Z,15.6
2018-09-02T01:19:19.997Z,15.6
2018-09-02T01:20:18.821Z,15.6
2018-09-02T01:21:18.047Z,15.6
2018-09-02T01:22:17.276Z,15.6
2018-09-02T01:23:16.896Z,15.6
2018-09-02T01:24:16.418Z,15.6
2018-09-02T01:25:15.355Z,15.6
2018-09-02T01:26:14.785Z,15.6
2018-09-02T01:27:13.911Z,15.6
2018-09-02T01:28:13.134Z,15.6
2018-09-02T01:29:12.763Z,15.6
2018-09-02T01:30:12.021Z,15.6
2018-09-02T01:31:10.954Z,15.6
2018-09-02T01:32:10.293Z,15.6
2018-09-02T01:33:09.806Z,15.6
2018-09-02T01:34:09.292Z,15.6
2018-09-02T01:34:39.827Z,15.6
2018-09-02T01:35:10.584Z,15.6
2018-09-02T01:35:41.226Z,15.6
2018-09-02T01:37:06.821Z,15.6
2018-09-02T01:38:06.148Z,15.6
2018-09-02T01:39:05.487Z,15.6
2018-09-02T01:40:04.922Z,15.6
2018-09-02T01:41:04.134Z,15.6
2018-09-02T01:42:03.359Z,15.6
2018-09-02T01:43:02.798Z,15.6
2018-09-02T01:44:02.029Z,15.6
2018-09-02T01:45:01.255Z,15.6
2018-09-02T01:45:31.908Z,15.6
2018-09-02T01:46:59.921Z,15.6
2018-09-02T01:47:30.466Z,15.6
2018-09-02T01:48:00.996Z,15.7
2018-09-02T01:48:31.637Z,15.7
2018-09-02T01:50:57.138Z,15.7
2018-09-02T01:51:56.369Z,15.7
2018-09-02T01:52:55.590Z,15.7
2018-09-02T01:53:54.703Z,15.7
2018-09-02T01:54:54.031Z,15.7
2018-09-02T01:55:53.344Z,15.7
2018-09-02T01:56:52.777Z,15.7
2018-09-02T01:57:52.008Z,15.7
2018-09-02T01:58:51.336Z,15.7
2018-09-02T01:59:50.463Z,15.7
2018-09-02T02:00:49.798Z,15.7
2018-09-02T02:01:49.126Z,15.7
2018-09-02T02:02:48.356Z,15.7
2018-09-02T02:03:47.570Z,15.7
2018-09-02T02:04:46.904Z,15.7
2018-09-02T02:05:46.230Z,15.7
2018-09-02T02:06:45.454Z,15.7
2018-09-02T02:07:44.789Z,15.7
2018-09-02T02:08:44.124Z,15.7
2018-09-02T02:09:43.459Z,15.7
2018-09-02T02:10:42.675Z,15.7
2018-09-02T02:11:41.799Z,15.7
2018-09-02T02:12:41.123Z,15.7
2018-09-02T02:13:40.443Z,15.7
2018-09-02T02:14:39.962Z,15.7
2018-09-02T02:15:38.891Z,15.7
2018-09-02T02:16:38.214Z,15.7
2018-09-02T02:18:36.934Z,15.7
2018-09-02T02:19:36.341Z,15.7
2018-09-02T02:20:35.578Z,15.7
2018-09-02T02:21:34.806Z,15.7
2018-09-02T02:22:34.137Z,15.6
2018-09-02T02:23:33.582Z,15.7
2018-09-02T02:24:32.406Z,15.7
2018-09-02T02:25:32.025Z,15.7
2018-09-02T02:26:31.355Z,15.6
2018-09-02T02:27:30.687Z,15.6
2018-09-02T02:28:29.908Z,15.6
2018-09-02T02:29:00.663Z,15.6
2018-09-02T02:29:31.090Z,15.6
2018-09-02T02:30:28.512Z,15.6
2018-09-02T02:31:27.638Z,15.6
2018-09-02T02:32:27.075Z,15.6
2018-09-02T02:33:26.404Z,15.6
2018-09-02T02:35:24.619Z,15.6
2018-09-02T02:36:23.941Z,15.6
2018-09-02T02:37:23.074Z,15.6
2018-09-02T02:38:22.913Z,15.5
2018-09-02T02:39:22.234Z,15.5
2018-09-02T02:40:21.055Z,15.5
2018-09-02T02:41:20.496Z,15.5
2018-09-02T02:42:19.815Z,15.5
2018-09-02T02:43:19.042Z,15.5
2018-09-02T02:44:18.252Z,15.5
2018-09-02T02:45:17.690Z,15.5
2018-09-02T02:46:17.030Z,15.5
2018-09-02T02:47:16.346Z,15.5
2018-09-02T02:48:15.667Z,15.5
2018-09-02T02:49:14.885Z,15.5
2018-09-02T02:50:13.985Z,15.5
2018-09-02T02:51:13.599Z,15.5
2018-09-02T02:52:12.820Z,15.5
2018-09-02T02:53:12.141Z,15.5
2018-09-02T02:54:11.457Z,15.4
2018-09-02T02:55:10.278Z,15.4
2018-09-02T02:56:09.881Z,15.4
2018-09-02T02:57:08.985Z,15.4
2018-09-02T02:58:08.308Z,15.4
2018-09-02T02:59:07.630Z,15.4
2018-09-02T03:00:06.967Z,15.3
2018-09-02T03:01:06.204Z,15.3
2018-09-02T03:02:05.325Z,15.3
2018-09-02T03:03:04.670Z,15.3
2018-09-02T03:04:04.009Z,15.3
2018-09-02T03:05:03.333Z,15.3
2018-09-02T03:06:02.556Z,15.3
2018-09-02T03:07:01.950Z,15.3
2018-09-02T03:08:01.195Z,15.3
2018-09-02T03:09:00.598Z,15.3
2018-09-02T03:09:59.924Z,15.3
2018-09-02T03:10:59.135Z,15.3
2018-09-02T03:11:58.454Z,15.3
2018-09-02T03:12:57.777Z,15.3
2018-09-02T03:13:57.000Z,15.3
2018-09-02T03:14:27.644Z,15.3
2018-09-02T03:14:58.171Z,15.3
2018-09-02T03:15:55.375Z,15.3
2018-09-02T03:16:54.592Z,15.3
2018-09-02T03:17:54.030Z,15.3
2018-09-02T03:18:53.453Z,15.4
2018-09-02T03:19:52.886Z,15.4
2018-09-02T03:20:51.709Z,15.4
2018-09-02T03:21:50.812Z,15.4
2018-09-02T03:22:50.543Z,15.4
2018-09-02T03:23:49.776Z,15.4
2018-09-02T03:24:20.534Z,15.4
2018-09-02T03:24:50.776Z,15.4
2018-09-02T03:25:21.016Z,15.4
2018-09-02T03:25:51.221Z,15.4
2018-09-02T03:26:21.849Z,15.4
2018-09-02T03:28:46.231Z,15.4
2018-09-02T03:29:45.228Z,15.4
2018-09-02T03:30:44.452Z,15.4
2018-09-02T03:31:43.897Z,15.5
2018-09-02T03:32:43.347Z,15.5
2018-09-02T03:33:42.681Z,15.5
2018-09-02T03:34:42.114Z,15.5
2018-09-02T03:35:41.030Z,15.5
2018-09-02T03:36:40.354Z,15.5
2018-09-02T03:37:39.784Z,15.5
2018-09-02T03:38:39.009Z,15.5
2018-09-02T03:39:38.225Z,15.5
2018-09-02T03:40:37.545Z,15.5
2018-09-02T03:41:36.891Z,15.6
2018-09-02T03:42:36.218Z,15.6
2018-09-02T03:43:35.534Z,15.6
2018-09-02T03:44:34.539Z,15.6
2018-09-02T03:45:33.970Z,15.6
2018-09-02T03:46:33.311Z,15.6
2018-09-02T03:47:32.528Z,15.6
2018-09-02T03:48:31.966Z,15.6
2018-09-02T03:49:01.996Z,15.6
2018-09-02T03:49:32.635Z,15.6
2018-09-02T03:50:30.445Z,15.6
2018-09-02T03:51:29.873Z,15.6
2018-09-02T03:52:28.685Z,15.6
2018-09-02T03:53:28.403Z,15.6
2018-09-02T03:54:27.725Z,15.6
2018-09-02T03:55:26.935Z,15.6
2018-09-02T03:55:57.259Z,15.6
2018-09-02T03:56:27.780Z,15.6
2018-09-02T03:57:25.582Z,15.6
2018-09-02T03:58:24.515Z,15.6
2018-09-02T03:59:23.840Z,15.6
2018-09-02T04:00:22.953Z,15.6
2018-09-02T04:01:22.279Z,15.6
2018-09-02T04:02:21.708Z,15.6
2018-09-02T04:03:21.028Z,15.6
2018-09-02T04:04:20.236Z,15.6
2018-09-02T04:05:19.550Z,15.6
2018-09-02T04:06:18.973Z,15.6
2018-09-02T04:06:49.224Z,15.6
2018-09-02T04:07:19.854Z,15.6
2018-09-02T04:07:50.269Z,15.6
2018-09-02T04:08:20.936Z,15.6
2018-09-02T04:08:51.465Z,15.6
2018-09-02T04:10:15.737Z,15.6
2018-09-02T04:11:15.374Z,15.6
2018-09-02T04:12:14.409Z,15.6
2018-09-02T04:13:13.736Z,15.6
2018-09-02T04:14:13.067Z,15.6
2018-09-02T04:15:12.169Z,15.6
2018-09-02T04:17:11.289Z,15.6
2018-09-02T04:18:10.386Z,15.6
2018-09-02T04:19:09.728Z,15.6
2018-09-02T04:20:09.043Z,15.6
2018-09-02T04:21:08.380Z,15.6
2018-09-02T04:22:07.634Z,15.6
2018-09-02T04:23:06.861Z,15.6
2018-09-02T04:24:06.280Z,15.6
2018-09-02T04:25:05.490Z,15.6
2018-09-02T04:26:04.710Z,15.6
2018-09-02T04:27:04.023Z,15.5
2018-09-02T04:28:03.342Z,15.5
2018-09-02T04:29:02.449Z,15.6
2018-09-02T04:30:01.741Z,15.6
2018-09-02T04:31:00.843Z,15.6
2018-09-02T04:32:00.558Z,15.6
2018-09-02T04:32:59.768Z,15.6
2018-09-02T04:33:58.698Z,15.6
2018-09-02T04:34:58.027Z,15.6
2018-09-02T04:35:57.455Z,15.6
2018-09-02T04:36:56.817Z,15.6
2018-09-02T04:37:56.189Z,15.6
2018-09-02T04:38:55.525Z,15.6
2018-09-02T04:39:54.357Z,15.6
2018-09-02T04:40:53.783Z,15.6
2018-09-02T04:41:52.892Z,15.6
2018-09-02T04:42:52.320Z,15.6
2018-09-02T04:43:51.634Z,15.5
2018-09-02T04:44:51.144Z,15.6
2018-09-02T04:45:50.139Z,15.5
2018-09-02T04:46:49.906Z,15.5
2018-09-02T04:47:48.638Z,15.5
2018-09-02T04:48:47.871Z,15.5
2018-09-02T04:49:47.484Z,15.5
2018-09-02T04:50:46.606Z,15.5
2018-09-02T04:51:46.218Z,15.5
2018-09-02T04:52:45.430Z,15.5
2018-09-02T04:53:44.759Z,15.5
2018-09-02T04:54:43.678Z,15.5
2018-09-02T04:55:42.942Z,15.5
2018-09-02T04:56:42.168Z,15.5
2018-09-02T04:57:41.614Z,15.5
2018-09-02T04:58:40.939Z,15.5
2018-09-02T04:59:40.150Z,15.5
2018-09-02T05:01:38.876Z,15.5
2018-09-02T05:02:38.313Z,15.5
2018-09-02T05:03:37.530Z,15.5
2018-09-02T05:04:36.684Z,15.5
2018-09-02T05:05:35.799Z,15.5
2018-09-02T05:06:35.158Z,15.5
2018-09-02T05:07:34.589Z,15.4
2018-09-02T05:09:33.190Z,15.4
2018-09-02T05:10:32.330Z,15.4
2018-09-02T05:11:31.856Z,15.4
2018-09-02T05:12:30.789Z,15.4
2018-09-02T05:13:30.399Z,15.3
2018-09-02T05:14:29.716Z,15.3
2018-09-02T05:15:29.041Z,15.3
2018-09-02T05:16:28.360Z,15.3
2018-09-02T05:17:27.069Z,15.3
2018-09-02T05:18:26.784Z,15.3
2018-09-02T05:20:24.987Z,15.2
2018-09-02T05:21:24.304Z,15.2
2018-09-02T05:22:24.018Z,15.2
2018-09-02T05:23:22.625Z,15.2
2018-09-02T05:24:22.440Z,15.1
2018-09-02T05:25:21.764Z,15.1
2018-09-02T05:26:20.887Z,15.1
2018-09-02T05:26:51.405Z,15.1
2018-09-02T05:27:21.931Z,15.1
2018-09-02T05:27:52.455Z,15.1
2018-09-02T05:29:18.741Z,15.1
2018-09-02T05:30:17.741Z,15.1
2018-09-02T05:31:17.461Z,15
2018-09-02T05:32:16.467Z,15
2018-09-02T05:33:15.801Z,15
2018-09-02T05:34:15.128Z,15
2018-09-02T05:35:14.555Z,15
2018-09-02T05:36:13.483Z,15
2018-09-02T05:37:13.093Z,15
2018-09-02T05:38:12.424Z,15
2018-09-02T05:40:10.628Z,14.9
2018-09-02T05:41:09.951Z,14.9
2018-09-02T05:42:09.376Z,14.9
2018-09-02T05:43:08.813Z,14.9
2018-09-02T05:44:07.922Z,14.9
2018-09-02T05:45:06.994Z,14.9
2018-09-02T05:45:37.415Z,14.9
2018-09-02T05:46:08.051Z,14.8
2018-09-02T05:46:38.580Z,14.8
2018-09-02T05:47:08.718Z,14.8
2018-09-02T05:47:39.145Z,14.8
2018-09-02T05:51:03.005Z,14.8
2018-09-02T05:53:01.322Z,14.7
2018-09-02T05:54:00.557Z,14.7
2018-09-02T05:54:59.886Z,14.7
2018-09-02T05:55:59.205Z,14.7
2018-09-02T05:56:58.520Z,14.7
2018-09-02T05:57:57.735Z,14.7
2018-09-02T05:58:56.945Z,14.6
2018-09-02T05:59:56.157Z,14.6
2018-09-02T06:01:54.871Z,14.6
2018-09-02T06:02:54.420Z,14.5
2018-09-02T06:03:53.604Z,14.5
2018-09-02T06:04:52.828Z,14.5
2018-09-02T06:05:52.036Z,14.5
2018-09-02T06:06:51.358Z,14.5
2018-09-02T06:07:50.571Z,14.4
2018-09-02T06:08:49.685Z,14.4
2018-09-02T06:09:49.009Z,14.4
2018-09-02T06:10:48.322Z,14.4
2018-09-02T06:12:46.810Z,14.4
2018-09-02T06:13:46.177Z,14.4
2018-09-02T06:14:45.615Z,14.4
2018-09-02T06:15:44.921Z,14.3
2018-09-02T06:16:43.845Z,14.3
2018-09-02T06:17:43.172Z,14.3
2018-09-02T06:18:42.270Z,14.3
2018-09-02T06:19:41.596Z,14.3
2018-09-02T06:20:40.826Z,14.3
2018-09-02T06:21:40.266Z,14.3
2018-09-02T06:22:39.592Z,14.3
2018-09-02T06:23:38.808Z,14.3
2018-09-02T06:24:38.025Z,14.3
2018-09-02T06:25:37.239Z,14.3
2018-09-02T06:26:36.443Z,14.3
2018-09-02T06:27:35.766Z,14.3
2018-09-02T06:28:35.203Z,14.3
2018-09-02T06:29:34.219Z,14.3
2018-09-02T06:30:33.540Z,14.3
2018-09-02T06:31:32.964Z,14.3
2018-09-02T06:32:32.285Z,14.3
2018-09-02T06:33:31.657Z,14.3
2018-09-02T06:34:30.604Z,14.3
2018-09-02T06:35:30.276Z,14.3
2018-09-02T06:36:29.487Z,14.3
2018-09-02T06:38:27.596Z,14.4
2018-09-02T06:39:26.985Z,14.4
2018-09-02T06:40:26.140Z,14.4
2018-09-02T06:41:25.569Z,14.4
2018-09-02T06:42:24.684Z,14.4
2018-09-02T06:43:24.110Z,14.4
2018-09-02T06:44:23.444Z,14.4
2018-09-02T06:45:22.764Z,14.4
2018-09-02T06:46:22.090Z,14.4
2018-09-02T06:47:21.409Z,14.4
2018-09-02T06:48:20.341Z,14.4
2018-09-02T06:49:19.719Z,14.4
2018-09-02T06:50:18.940Z,14.4
2018-09-02T06:51:18.365Z,14.4
2018-09-02T06:52:17.296Z,14.4
2018-09-02T06:53:16.620Z,14.4
2018-09-02T06:54:15.946Z,14.4
2018-09-02T06:55:15.381Z,14.4
2018-09-02T06:56:14.592Z,14.4
2018-09-02T06:57:13.905Z,14.4
2018-09-02T06:59:12.626Z,14.4
2018-09-02T07:00:11.453Z,14.4
2018-09-02T07:01:10.667Z,14.4
2018-09-02T07:02:09.934Z,14.4
2018-09-02T07:03:09.244Z,14.4
2018-09-02T07:04:08.424Z,14.4
2018-09-02T07:04:38.964Z,14.4
2018-09-02T07:05:09.606Z,14.4
2018-09-02T07:05:40.236Z,14.4
2018-09-02T07:06:10.662Z,14.4
2018-09-02T07:06:41.061Z,14.4
2018-09-02T07:07:11.585Z,14.4
2018-09-02T07:07:42.003Z,14.4
2018-09-02T07:08:12.418Z,14.4
2018-09-02T07:09:04.979Z,14.4
2018-09-02T07:10:04.302Z,14.4
2018-09-02T07:11:03.575Z,14.4
2018-09-02T07:12:02.995Z,14.4
2018-09-02T07:13:01.925Z,14.4
2018-09-02T07:14:01.434Z,14.4
2018-09-02T07:15:00.869Z,14.4
2018-09-02T07:15:59.712Z,14.4
2018-09-02T07:16:59.030Z,14.4
2018-09-02T07:17:58.359Z,14.4
2018-09-02T07:18:57.797Z,14.4
2018-09-02T07:19:57.225Z,14.4
2018-09-02T07:20:56.010Z,14.4
2018-09-02T07:21:55.325Z,14.4
2018-09-02T07:22:54.656Z,14.4
2018-09-02T07:23:25.194Z,14.4
2018-09-02T07:23:55.818Z,14.4
2018-09-02T07:24:25.956Z,14.4
2018-09-02T07:25:52.351Z,14.4
2018-09-02T07:26:51.673Z,14.4
2018-09-02T07:27:50.885Z,14.4
2018-09-02T07:28:50.213Z,14.4
2018-09-02T07:29:49.542Z,14.4
2018-09-02T07:30:48.758Z,14.4
2018-09-02T07:31:47.977Z,14.4
2018-09-02T07:32:47.079Z,14.4
2018-09-02T07:33:46.396Z,14.4
2018-09-02T07:34:45.896Z,14.4
2018-09-02T07:35:45.329Z,14.4
2018-09-02T07:36:44.648Z,14.4
2018-09-02T07:37:43.573Z,14.4
2018-09-02T07:38:43.003Z,14.4
2018-09-02T07:39:42.318Z,14.4
2018-09-02T07:40:41.531Z,14.4
2018-09-02T07:41:40.849Z,14.4
2018-09-02T07:42:40.056Z,14.4
2018-09-02T07:43:39.537Z,14.4
2018-09-02T07:44:38.647Z,14.4
2018-09-02T07:45:37.858Z,14.4
2018-09-02T07:46:37.188Z,14.4
2018-09-02T07:47:36.408Z,14.4
2018-09-02T07:48:35.628Z,14.4
2018-09-02T07:49:34.840Z,14.4
2018-09-02T07:50:34.271Z,14.4
2018-09-02T07:51:33.280Z,14.4
2018-09-02T07:52:32.723Z,14.4
2018-09-02T07:53:32.054Z,14.4
2018-09-02T07:54:31.484Z,14.4
2018-09-02T07:55:30.260Z,14.4
2018-09-02T07:56:29.583Z,14.4
2018-09-02T07:57:28.918Z,14.4
2018-09-02T07:58:28.283Z,14.4
2018-09-02T07:59:27.278Z,14.4
2018-09-02T08:00:26.651Z,14.4
2018-09-02T08:01:26.076Z,14.4
2018-09-02T08:02:25.184Z,14.4
2018-09-02T08:03:24.187Z,14.4
2018-09-02T08:04:23.606Z,14.4
2018-09-02T08:05:22.831Z,14.4
2018-09-02T08:06:22.144Z,14.4
2018-09-02T08:06:52.457Z,14.4
2018-09-02T08:07:23.198Z,14.4
2018-09-02T08:08:20.794Z,14.5
2018-09-02T08:09:20.112Z,14.5
2018-09-02T08:10:19.326Z,14.5
2018-09-02T08:11:18.648Z,14.4
2018-09-02T08:12:18.076Z,14.4
2018-09-02T08:14:16.515Z,14.4
2018-09-02T08:15:15.627Z,14.4
2018-09-02T08:16:14.971Z,14.4
2018-09-02T08:17:14.062Z,14.4
2018-09-02T08:18:13.274Z,14.4
2018-09-02T08:19:12.695Z,14.4
2018-09-02T08:21:10.957Z,14.4
2018-09-02T08:22:10.286Z,14.4
2018-09-02T08:23:09.600Z,14.4
2018-09-02T08:24:08.931Z,14.4
2018-09-02T08:25:08.256Z,14.4
2018-09-02T08:26:07.471Z,14.4
2018-09-02T08:27:06.894Z,14.4
2018-09-02T08:28:05.999Z,14.4
2018-09-02T08:29:05.212Z,14.4
2018-09-02T08:30:04.387Z,14.4
2018-09-02T08:31:03.711Z,14.4
2018-09-02T08:32:02.823Z,14.4
2018-09-02T08:33:02.524Z,14.4
2018-09-02T08:35:00.852Z,14.4
2018-09-02T08:36:00.075Z,14.4
2018-09-02T08:36:59.398Z,14.4
2018-09-02T08:37:58.711Z,14.4
2018-09-02T08:38:58.433Z,14.4
2018-09-02T08:39:56.922Z,14.4
2018-09-02T08:40:56.345Z,14.4
2018-09-02T08:41:55.558Z,14.4
2018-09-02T08:42:54.881Z,14.4
2018-09-02T08:43:25.016Z,14.4
2018-09-02T08:43:55.435Z,14.4
2018-09-02T08:44:26.566Z,14.4
2018-09-02T08:44:56.592Z,14.4
2018-09-02T08:45:52.565Z,14.4
2018-09-02T08:46:51.781Z,14.4
2018-09-02T08:47:51.331Z,14.4
2018-09-02T08:48:50.549Z,14.4
2018-09-02T08:49:49.660Z,14.4
2018-09-02T08:50:48.983Z,14.4
2018-09-02T08:51:48.419Z,14.4
2018-09-02T08:52:47.734Z,14.4
2018-09-02T08:53:46.945Z,14.4
2018-09-02T08:54:46.261Z,14.4
2018-09-02T08:55:16.947Z,14.4
2018-09-02T08:55:47.467Z,14.4
2018-09-02T08:56:44.450Z,14.4
2018-09-02T08:58:43.160Z,14.4
2018-09-02T08:59:42.609Z,14.4
2018-09-02T09:00:41.442Z,14.4
2018-09-02T09:01:41.002Z,14.4
2018-09-02T09:02:39.938Z,14.4
2018-09-02T09:03:39.250Z,14.4
2018-09-02T09:04:38.468Z,14.4
2018-09-02T09:05:37.793Z,14.4
2018-09-02T09:06:37.010Z,14.4
2018-09-02T09:07:36.814Z,14.4
2018-09-02T09:08:36.117Z,14.4
2018-09-02T09:09:34.782Z,14.5
2018-09-02T09:10:34.098Z,14.5
2018-09-02T09:11:33.525Z,14.4
2018-09-02T09:12:32.732Z,14.5
2018-09-02T09:13:32.054Z,14.5
2018-09-02T09:14:31.271Z,14.5
2018-09-02T09:15:30.485Z,14.5
2018-09-02T09:16:30.044Z,14.5
2018-09-02T09:17:28.970Z,14.5
2018-09-02T09:18:28.484Z,14.5
2018-09-02T09:19:27.598Z,14.5
2018-09-02T09:20:26.806Z,14.5
2018-09-02T09:21:26.218Z,14.5
2018-09-02T09:22:25.669Z,14.5
2018-09-02T09:23:24.998Z,14.5
2018-09-02T09:24:23.805Z,14.5
2018-09-02T09:25:23.126Z,14.5
2018-09-02T09:26:22.345Z,14.5
2018-09-02T09:26:52.980Z,14.5
2018-09-02T09:27:23.497Z,14.5
2018-09-02T09:27:53.932Z,14.5
2018-09-02T09:28:24.565Z,14.5
2018-09-02T09:30:19.431Z,14.6
2018-09-02T09:31:18.647Z,14.6
2018-09-02T09:32:18.356Z,14.6
2018-09-02T09:33:17.368Z,14.6
2018-09-02T09:34:16.483Z,14.6
2018-09-02T09:35:15.807Z,14.6
2018-09-02T09:36:15.075Z,14.6
2018-09-02T09:37:14.283Z,14.6
2018-09-02T09:37:44.863Z,14.6
2018-09-02T09:38:15.390Z,14.6
2018-09-02T09:39:13.091Z,14.7
2018-09-02T09:40:12.014Z,14.7
2018-09-02T09:42:10.724Z,14.7
2018-09-02T09:43:10.058Z,14.7
2018-09-02T09:44:09.277Z,14.7
2018-09-02T09:45:08.491Z,14.7
2018-09-02T09:46:07.990Z,14.7
2018-09-02T09:47:07.107Z,14.7
2018-09-02T09:48:06.205Z,14.7
2018-09-02T09:50:05.011Z,14.7
2018-09-02T09:51:04.236Z,14.7
2018-09-02T09:52:03.557Z,14.7
2018-09-02T09:53:02.778Z,14.7
2018-09-02T09:55:01.046Z,14.7
2018-09-02T09:56:00.374Z,14.8
2018-09-02T09:56:59.384Z,14.8
2018-09-02T09:57:58.815Z,14.8
2018-09-02T09:58:58.247Z,14.8
2018-09-02T09:59:57.355Z,14.7
2018-09-02T10:00:56.570Z,14.8
2018-09-02T10:01:55.893Z,14.8
2018-09-02T10:02:55.215Z,14.8
2018-09-02T10:03:54.740Z,14.8
2018-09-02T10:04:53.741Z,14.8
2018-09-02T10:05:53.065Z,14.8
2018-09-02T10:06:52.386Z,14.8
2018-09-02T10:07:51.819Z,14.8
2018-09-02T10:08:50.821Z,14.8
2018-09-02T10:09:50.138Z,14.8
2018-09-02T10:10:49.579Z,14.8
2018-09-02T10:11:49.347Z,14.8
2018-09-02T10:12:47.889Z,14.8
2018-09-02T10:13:47.096Z,14.8
2018-09-02T10:14:46.424Z,14.9
2018-09-02T10:15:45.744Z,14.9
2018-09-02T10:16:45.174Z,14.9
2018-09-02T10:17:44.490Z,14.9
2018-09-02T10:18:43.398Z,14.9
2018-09-02T10:19:42.706Z,14.9
2018-09-02T10:20:42.127Z,15
2018-09-02T10:21:41.350Z,15
2018-09-02T10:22:40.576Z,15
2018-09-02T10:23:39.997Z,15
2018-09-02T10:24:39.316Z,15
2018-09-02T10:25:38.629Z,15
2018-09-02T10:26:37.444Z,15
2018-09-02T10:27:37.154Z,15
2018-09-02T10:28:36.474Z,15
2018-09-02T10:29:35.789Z,15
2018-09-02T10:30:35.004Z,15
2018-09-02T10:31:34.326Z,15
2018-09-02T10:32:33.551Z,15
2018-09-02T10:33:04.185Z,15
2018-09-02T10:33:34.312Z,15
2018-09-02T10:34:31.733Z,15
2018-09-02T10:35:31.171Z,15
2018-09-02T10:36:30.607Z,15
2018-09-02T10:38:28.919Z,15
2018-09-02T10:39:28.542Z,15.1
2018-09-02T10:40:27.365Z,15.1
2018-09-02T10:41:26.943Z,15.1
2018-09-02T10:42:25.832Z,15.1
2018-09-02T10:43:25.446Z,15.1
2018-09-02T10:44:24.788Z,15.1
2018-09-02T10:45:24.105Z,15.1
2018-09-02T10:46:22.818Z,15.1
2018-09-02T10:47:22.485Z,15.1
2018-09-02T10:48:21.809Z,15.1
2018-09-02T10:49:21.140Z,15.1
2018-09-02T10:50:20.415Z,15.1
2018-09-02T10:51:19.836Z,15.2
2018-09-02T10:52:18.650Z,15.2
2018-09-02T10:53:17.987Z,15.2
2018-09-02T10:54:17.205Z,15.2
2018-09-02T10:55:16.529Z,15.2
2018-09-02T10:56:15.903Z,15.2
2018-09-02T10:57:15.221Z,15.2
2018-09-02T10:58:14.441Z,15.2
2018-09-02T10:59:13.766Z,15.2
2018-09-02T11:00:12.977Z,15.2
2018-09-02T11:01:12.193Z,15.2
2018-09-02T11:02:11.402Z,15.3
2018-09-02T11:02:41.820Z,15.3
2018-09-02T11:03:12.546Z,15.3
2018-09-02T11:04:10.258Z,15.3
2018-09-02T11:04:40.999Z,15.3
2018-09-02T11:05:11.318Z,15.3
2018-09-02T11:05:41.955Z,15.3
2018-09-02T11:08:07.245Z,15.3
2018-09-02T11:09:06.584Z,15.3
2018-09-02T11:10:05.801Z,15.4
2018-09-02T11:11:04.906Z,15.3
2018-09-02T11:12:04.222Z,15.3
2018-09-02T11:13:03.693Z,15.3
2018-09-02T11:14:03.642Z,15.3
2018-09-02T11:14:33.542Z,15.3
2018-09-02T11:15:04.194Z,15.3
2018-09-02T11:15:34.736Z,15.3
2018-09-02T11:16:05.278Z,15.4
2018-09-02T11:16:35.517Z,15.4
2018-09-02T11:17:59.900Z,15.4
2018-09-02T11:18:59.223Z,15.4
2018-09-02T11:19:58.371Z,15.4
2018-09-02T11:20:57.802Z,15.4
2018-09-02T11:21:57.125Z,15.4
2018-09-02T11:22:56.464Z,15.5
2018-09-02T11:23:55.799Z,15.5
2018-09-02T11:24:55.023Z,15.5
2018-09-02T11:26:53.520Z,15.6
2018-09-02T11:27:52.743Z,15.5
2018-09-02T11:28:52.059Z,15.6
2018-09-02T11:29:51.276Z,15.6
2018-09-02T11:30:50.707Z,15.6
2018-09-02T11:31:50.023Z,15.7
2018-09-02T11:32:49.341Z,15.7
2018-09-02T11:33:48.660Z,15.7
2018-09-02T11:34:47.989Z,15.8
2018-09-02T11:35:46.921Z,15.8
2018-09-02T11:36:46.134Z,15.8
2018-09-02T11:37:45.857Z,15.8
2018-09-02T11:38:44.680Z,15.8
2018-09-02T11:39:44.501Z,15.8
2018-09-02T11:40:43.609Z,15.8
2018-09-02T11:41:42.717Z,15.8
2018-09-02T11:42:42.045Z,15.8
2018-09-02T11:43:41.371Z,15.8
2018-09-02T11:44:40.802Z,15.8
2018-09-02T11:45:40.122Z,15.9
2018-09-02T11:47:38.322Z,15.9
2018-09-02T11:48:38.058Z,15.9
2018-09-02T11:49:37.281Z,15.9
2018-09-02T11:50:36.598Z,15.9
2018-09-02T11:51:35.519Z,15.9
2018-09-02T11:52:34.857Z,15.9
2018-09-02T11:53:34.069Z,15.9
2018-09-02T11:54:33.493Z,15.9
2018-09-02T11:55:32.603Z,15.9
2018-09-02T11:56:32.318Z,15.9
2018-09-02T11:57:02.347Z,15.9
2018-09-02T11:57:32.832Z,15.9
2018-09-02T11:58:03.512Z,15.9
2018-09-02T11:58:34.144Z,15.9
2018-09-02T11:59:29.844Z,15.8
2018-09-02T12:00:28.954Z,15.8
2018-09-02T12:01:28.767Z,15.9
2018-09-02T12:02:27.973Z,15.8
2018-09-02T12:03:27.303Z,15.9
2018-09-02T12:04:26.729Z,15.9
2018-09-02T12:05:25.944Z,15.9
2018-09-02T12:06:25.261Z,15.9
2018-09-02T12:07:24.076Z,15.9
2018-09-02T12:08:23.914Z,15.9
2018-09-02T12:09:22.857Z,15.8
2018-09-02T12:10:22.171Z,15.8
2018-09-02T12:11:21.534Z,15.8
2018-09-02T12:12:20.741Z,15.8
2018-09-02T12:13:19.869Z,15.8
2018-09-02T12:15:18.371Z,15.8
2018-09-02T12:16:18.194Z,15.8
2018-09-02T12:17:17.129Z,15.8
2018-09-02T12:18:16.450Z,15.8
2018-09-02T12:19:15.666Z,15.8
2018-09-02T12:20:15.094Z,15.8
2018-09-02T12:21:14.417Z,15.8
2018-09-02T12:22:13.837Z,15.8
2018-09-02T12:24:12.221Z,15.8
2018-09-02T12:25:11.538Z,15.8
2018-09-02T12:26:10.552Z,15.8
2018-09-02T12:27:09.981Z,15.8
2018-09-02T12:28:09.416Z,15.8
2018-09-02T12:29:08.632Z,15.8
2018-09-02T12:30:07.961Z,15.8
2018-09-02T12:31:07.087Z,15.8
2018-09-02T12:32:06.521Z,15.8
2018-09-02T12:33:05.734Z,15.9
2018-09-02T12:34:05.067Z,15.9
2018-09-02T12:35:04.303Z,15.9
2018-09-02T12:36:03.620Z,15.9
2018-09-02T12:37:03.344Z,15.9
2018-09-02T12:38:02.362Z,15.9
2018-09-02T12:39:01.584Z,15.9
2018-09-02T12:40:01.080Z,15.9
2018-09-02T12:41:00.430Z,15.9
2018-09-02T12:41:59.533Z,15.9
2018-09-02T12:42:29.948Z,15.9
2018-09-02T12:43:00.476Z,15.9
2018-09-02T12:43:31.017Z,15.9
2018-09-02T12:44:01.259Z,15.9
2018-09-02T12:44:31.899Z,15.9
2018-09-02T12:45:56.784Z,15.9
2018-09-02T12:46:55.887Z,15.9
2018-09-02T12:47:56.031Z,15.9
2018-09-02T12:49:53.765Z,15.9
2018-09-02T12:50:52.979Z,15.9
2018-09-02T12:51:52.088Z,15.9
2018-09-02T12:52:22.524Z,15.9
2018-09-02T12:52:53.270Z,15.9
2018-09-02T12:53:23.508Z,15.9
2018-09-02T12:53:54.037Z,15.9
2018-09-02T12:54:24.463Z,15.9
2018-09-02T12:54:54.988Z,15.9
2018-09-02T12:55:25.458Z,15.9
2018-09-02T12:56:48.967Z,15.8
2018-09-02T12:57:19.206Z,15.8
2018-09-02T12:57:49.835Z,15.9
2018-09-02T12:58:47.544Z,15.9
2018-09-02T12:59:46.876Z,15.9
2018-09-02T13:00:46.200Z,15.9